Time;durP1;ratioP1;P1;durP2;ratioP2;P2;SDS_P1;SDS_P2;PMS_P1;PMS_P2;Temp;Humidity;BMP_temperature;BMP_pressure;BME280_temperature;BME280_humidity;BME280_pressure;Samples;Min_cycle;Max_cycle;Signal;HPM_P1;HPM_P2
2021/01/06 00:01:32;;;;;;;42.95;24.10;;;;;;;-0.10;100.00;99046.71;1779595;81;21115;-69
2021/01/06 00:04:00;;;;;;;44.63;23.98;;;;;;;-0.08;100.00;99054.02;1791557;80;21118;-67
2021/01/06 00:06:30;;;;;;;47.33;26.25;;;;;;;-0.06;100.00;99048.63;1793206;78;21557;-69
2021/01/06 00:08:58;;;;;;;47.93;25.43;;;;;;;-0.09;100.00;99058.22;1794542;79;21150;-66
2021/01/06 00:11:33;;;;;;;43.38;24.18;;;;;;;-0.08;100.00;99055.28;1794441;79;21115;-67
2021/01/06 00:14:03;;;;;;;44.35;23.07;;;;;;;-0.13;100.00;99041.48;1794474;78;21542;-65
2021/01/06 00:16:31;;;;;;;42.58;22.95;;;;;;;-0.11;100.00;99047.52;1793355;80;21573;-71
2021/01/06 00:18:58;;;;;;;46.33;23.80;;;;;;;-0.13;100.00;99047.82;1793348;79;21146;-70
2021/01/06 00:21:27;;;;;;;54.85;27.22;;;;;;;-0.16;100.00;99057.41;1793347;80;21550;-71
2021/01/06 00:23:54;;;;;;;40.73;22.37;;;;;;;-0.15;100.00;99055.73;1793452;80;21107;-72
2021/01/06 00:26:22;;;;;;;43.87;22.85;;;;;;;-0.16;100.00;99061.61;1793161;79;21552;-68
2021/01/06 00:28:50;;;;;;;41.30;22.27;;;;;;;-0.18;100.00;99063.18;1793158;79;21285;-70
2021/01/06 00:31:17;;;;;;;45.43;21.93;;;;;;;-0.14;100.00;99052.42;1793169;78;21162;-70
2021/01/06 00:33:45;;;;;;;45.45;23.35;;;;;;;-0.09;100.00;99053.55;1793275;78;21135;-68
2021/01/06 00:36:19;;;;;;;45.63;23.38;;;;;;;-0.09;100.00;99054.81;1793390;80;21499;-74
2021/01/06 00:38:49;;;;;;;42.75;22.40;;;;;;;-0.02;100.00;99049.29;1793195;78;21142;-71
2021/01/06 00:41:29;;;;;;;51.65;25.05;;;;;;;0.03;100.00;99057.16;1793482;79;21320;-71
2021/01/06 00:43:59;;;;;;;51.75;25.43;;;;;;;0.03;100.00;99049.14;1793383;80;21158;-72
2021/01/06 00:46:31;;;;;;;42.08;21.82;;;;;;;-0.02;100.00;99045.09;1793143;80;21159;-66
2021/01/06 00:49:00;;;;;;;46.25;23.92;;;;;;;-0.03;100.00;99058.94;1793356;78;21521;-69
2021/01/06 00:51:28;;;;;;;45.67;23.42;;;;;;;-0.05;100.00;99047.83;1793257;79;21138;-74
2021/01/06 00:53:56;;;;;;;45.78;23.18;;;;;;;-0.03;100.00;99039.91;1793313;79;21155;-73
2021/01/06 00:56:30;;;;;;;38.65;18.77;;;;;;;0.01;100.00;99044.38;1775765;80;21135;-72
2021/01/06 00:58:58;;;;;;;39.73;20.23;;;;;;;-0.03;100.00;99047.52;1793079;79;21189;-69
2021/01/06 01:01:27;;;;;;;37.60;21.95;;;;;;;-0.06;100.00;99039.36;1793204;79;21143;-72
2021/01/06 01:03:57;;;;;;;40.52;21.55;;;;;;;-0.03;100.00;99038.65;1793081;78;21158;-68
2021/01/06 01:06:28;;;;;;;40.73;21.33;;;;;;;0.02;100.00;99034.69;1793266;79;21143;-70
2021/01/06 01:08:57;;;;;;;39.38;19.87;;;;;;;0.06;100.00;99035.75;1793366;79;21114;-68
2021/01/06 01:11:27;;;;;;;37.90;20.25;;;;;;;0.03;100.00;99044.07;1793146;79;21138;-71
2021/01/06 01:13:55;;;;;;;41.42;22.15;;;;;;;0.02;100.00;99037.63;1793287;78;21158;-72
2021/01/06 01:16:23;;;;;;;38.33;20.85;;;;;;;0.00;100.00;99031.23;1793286;80;21317;-75
2021/01/06 01:18:51;;;;;;;36.50;20.10;;;;;;;0.00;100.00;99041.37;1793210;79;21122;-70
2021/01/06 01:21:21;;;;;;;36.98;18.98;;;;;;;-0.02;100.00;99028.59;1793116;79;21139;-71
2021/01/06 01:23:52;;;;;;;40.58;21.73;;;;;;;0.00;100.00;99022.34;1793436;80;21530;-71
2021/01/06 01:26:19;;;;;;;37.83;20.75;;;;;;;-0.01;100.00;99024.39;1793350;80;21134;-72
2021/01/06 01:28:48;;;;;;;39.55;21.93;;;;;;;-0.01;100.00;99019.31;1793138;79;21111;-73
2021/01/06 01:31:15;;;;;;;40.20;23.30;;;;;;;-0.01;100.00;99021.85;1793125;79;21111;-69
2021/01/06 01:33:44;;;;;;;36.38;20.00;;;;;;;0.01;100.00;99011.39;1793136;79;21119;-65
2021/01/06 01:36:12;;;;;;;35.08;18.57;;;;;;;0.02;100.00;99009.32;1793259;80;21280;-72
2021/01/06 01:38:40;;;;;;;36.83;21.77;;;;;;;0.02;100.00;99013.53;1793342;80;21522;-64
2021/01/06 01:41:12;;;;;;;42.40;22.73;;;;;;;0.03;100.00;99011.49;1793231;80;21297;-66
2021/01/06 01:43:40;;;;;;;41.65;21.20;;;;;;;0.03;100.00;99009.81;1793217;79;21154;-66
2021/01/06 01:46:32;;;;;;;39.23;21.12;;;;;;;0.03;100.00;99002.21;1793122;79;21178;-71
2021/01/06 01:49:03;;;;;;;45.75;24.92;;;;;;;0.07;100.00;99012.97;1793413;80;21296;-70
2021/01/06 01:51:43;;;;;;;45.10;24.35;;;;;;;0.08;100.00;98998.66;1793355;80;21615;-70
2021/01/06 01:54:14;;;;;;;45.43;22.85;;;;;;;0.06;100.00;98994.75;1774862;79;21660;-65
2021/01/06 01:57:01;;;;;;;46.55;24.63;;;;;;;0.11;100.00;99003.88;1793629;80;21518;-70
2021/01/06 01:59:49;;;;;;;44.58;25.05;;;;;;;0.11;100.00;99007.28;1793379;79;21530;-69
2021/01/06 02:02:48;;;;;;;50.63;27.45;;;;;;;0.09;100.00;98998.71;1793377;79;21166;-68
2021/01/06 02:05:20;;;;;;;51.83;27.00;;;;;;;0.06;100.00;98985.88;1793486;79;21538;-70
2021/01/06 02:08:16;;;;;;;55.25;28.32;;;;;;;0.12;100.00;98983.64;1774856;80;21126;-68
2021/01/06 02:11:00;;;;;;;49.55;27.65;;;;;;;0.13;100.00;98987.95;1793276;78;21157;-72
2021/01/06 02:13:36;;;;;;;49.18;27.93;;;;;;;0.11;100.00;98992.06;1774442;80;21272;-69
2021/01/06 02:16:20;;;;;;;53.42;27.10;;;;;;;0.10;100.00;98991.97;1793369;79;21272;-68
2021/01/06 02:18:49;;;;;;;54.42;28.77;;;;;;;0.09;100.00;98987.30;1793558;78;21530;-69
2021/01/06 02:21:23;;;;;;;56.53;28.90;;;;;;;0.12;100.00;98996.33;1793572;78;21558;-65
2021/01/06 02:23:53;;;;;;;53.50;29.37;;;;;;;0.11;100.00;98996.27;1793294;79;21292;-71
2021/01/06 02:26:27;;;;;;;63.80;31.90;;;;;;;0.13;100.00;98998.50;1793487;80;21253;-67
2021/01/06 02:28:56;;;;;;;59.85;30.77;;;;;;;0.12;100.00;99003.94;1793519;80;21553;-71
2021/01/06 02:31:24;;;;;;;56.40;30.55;;;;;;;0.12;100.00;99000.53;1793234;78;21163;-66
2021/01/06 02:33:52;;;;;;;55.48;30.00;;;;;;;0.11;100.00;98998.41;1793488;78;21573;-70
2021/01/06 02:36:22;;;;;;;57.60;31.70;;;;;;;0.14;100.00;98980.80;1793270;79;21316;-69
2021/01/06 02:38:50;;;;;;;54.00;28.25;;;;;;;0.18;100.00;98983.12;1793291;79;21269;-69
2021/01/06 02:41:18;;;;;;;55.90;28.40;;;;;;;0.16;100.00;98986.83;1793414;80;21147;-65
2021/01/06 02:43:48;;;;;;;56.50;30.52;;;;;;;0.17;100.00;98988.56;1793481;78;21143;-67
2021/01/06 02:46:18;;;;;;;58.80;30.97;;;;;;;0.21;100.00;98989.21;1793137;78;21166;-71
2021/01/06 02:48:47;;;;;;;62.75;32.95;;;;;;;0.21;100.00;98979.46;1793271;79;21142;-71
2021/01/06 02:51:24;;;;;;;54.18;28.52;;;;;;;0.17;100.00;98980.08;1793391;79;21545;-71
2021/01/06 02:54:01;;;;;;;53.70;29.82;;;;;;;0.17;100.00;98980.08;1793442;78;21549;-66
2021/01/06 02:56:31;;;;;;;55.43;30.10;;;;;;;0.18;100.00;98983.12;1793400;80;21554;-71
2021/01/06 02:59:04;;;;;;;64.32;31.55;;;;;;;0.20;100.00;98979.87;1793362;78;21158;-68
2021/01/06 03:01:35;;;;;;;64.30;32.48;;;;;;;0.20;100.00;98980.23;1793215;79;21126;-68
2021/01/06 03:04:07;;;;;;;59.38;29.92;;;;;;;0.13;100.00;98971.45;1793328;78;21166;-69
2021/01/06 03:06:43;;;;;;;58.40;29.85;;;;;;;0.14;100.00;98985.88;1793363;80;21130;-74
2021/01/06 03:09:33;;;;;;;65.32;31.73;;;;;;;0.14;100.00;98976.12;1793549;79;21526;-69
2021/01/06 03:12:06;;;;;;;58.33;30.30;;;;;;;0.07;100.00;98982.93;1793280;80;21115;-72
2021/01/06 03:14:35;;;;;;;56.50;30.43;;;;;;;0.06;100.00;98987.55;1793226;78;21111;-71
2021/01/06 03:17:05;;;;;;;51.40;27.55;;;;;;;0.06;100.00;98983.34;1793441;79;21550;-67
2021/01/06 03:19:37;;;;;;;60.90;31.20;;;;;;;0.12;100.00;98976.03;1793336;78;21160;-69
2021/01/06 03:22:08;;;;;;;55.88;29.55;;;;;;;0.13;100.00;98973.98;1793368;79;21153;-67
2021/01/06 03:24:44;;;;;;;53.80;28.05;;;;;;;0.11;100.00;98986.98;1793411;80;21517;-70
2021/01/06 03:27:12;;;;;;;52.70;28.57;;;;;;;0.10;100.00;98961.15;1792585;79;21671;-70
2021/01/06 03:29:44;;;;;;;58.87;31.25;;;;;;;0.14;100.00;98976.98;1793401;79;21537;-72
2021/01/06 03:32:27;;;;;;;;;;;;;;;0.16;100.00;98969.06;1795821;79;21277;-71
2021/01/06 03:35:08;;;;;;;57.38;27.10;;;;;;;0.23;100.00;98966.83;1801430;79;20220;-67
2021/01/06 03:37:42;;;;;;;53.08;25.85;;;;;;;0.26;100.00;98977.17;1792978;79;21553;-67
2021/01/06 03:40:15;;;;;;;56.55;30.08;;;;;;;0.26;100.00;98970.42;1793042;79;21565;-73
2021/01/06 03:42:43;;;;;;;56.45;30.25;;;;;;;0.18;100.00;98977.64;1793156;79;21577;-66
2021/01/06 03:45:16;;;;;;;64.32;30.68;;;;;;;0.20;100.00;98983.67;1793252;79;21151;-66
2021/01/06 03:47:57;;;;;;;48.85;26.10;;;;;;;0.20;100.00;98986.58;1775166;79;21522;-72
2021/01/06 03:50:38;;;;;;;52.85;29.45;;;;;;;0.16;100.00;98983.02;1793422;79;21577;-71
2021/01/06 03:53:37;;;;;;;51.95;27.05;;;;;;;0.18;100.00;98970.03;1793364;80;21668;-70
2021/01/06 03:56:26;;;;;;;64.72;31.07;;;;;;;0.26;100.00;98968.28;1793216;78;21143;-69
2021/01/06 03:59:04;;;;;;;63.13;32.03;;;;;;;0.23;100.00;98976.61;1793256;79;21151;-68
2021/01/06 04:02:10;;;;;;;65.15;34.20;;;;;;;0.23;100.00;98975.72;1793068;78;21550;-68
2021/01/06 04:05:07;;;;;;;67.25;34.33;;;;;;;0.23;100.00;98980.79;1783685;79;21277;-72
2021/01/06 04:07:40;;;;;;;65.57;32.80;;;;;;;0.17;100.00;98986.02;1779657;79;21269;-70
2021/01/06 04:10:13;;;;;;;63.78;34.45;;;;;;;0.17;100.00;98986.02;1779381;79;21119;-74
2021/01/06 04:12:41;;;;;;;62.05;30.95;;;;;;;0.17;100.00;98982.22;1779345;79;21188;-71
2021/01/06 04:15:12;;;;;;;68.55;33.70;;;;;;;0.19;100.00;98981.04;1779442;79;21143;-71
2021/01/06 04:17:44;;;;;;;62.62;34.78;;;;;;;0.18;100.00;98981.84;1779648;79;21287;-67
2021/01/06 04:20:29;;;;;;;67.37;33.98;;;;;;;0.16;100.00;98984.70;1779367;80;21143;-69
2021/01/06 04:23:00;;;;;;;74.10;34.15;;;;;;;0.20;100.00;98986.58;1779354;79;21147;-70
2021/01/06 04:25:36;;;;;;;75.15;33.38;;;;;;;0.23;100.00;98988.41;1779690;81;21147;-70
2021/01/06 04:28:21;;;;;;;70.90;35.40;;;;;;;0.26;100.00;98993.66;1779550;81;21143;-73
2021/01/06 04:31:15;;;;;;;70.25;34.88;;;;;;;0.35;100.00;98989.05;1853482;77;22163;-68
2021/01/06 04:33:47;;;;;;;61.37;32.90;;;;;;;0.28;100.00;98992.95;1826083;78;21130;-66
2021/01/06 04:36:20;;;;;;;56.10;29.95;;;;;;;0.26;100.00;99016.51;1825856;78;21165;-65
2021/01/06 04:38:55;;;;;;;74.42;35.85;;;;;;;0.24;100.00;99002.86;1758755;81;21166;-68
2021/01/06 04:41:41;;;;;;;82.62;37.85;;;;;;;0.24;100.00;99008.80;1758710;81;21190;-68
2021/01/06 04:44:32;;;;;;;73.87;35.28;;;;;;;0.30;100.00;99008.23;1759053;81;21792;-68
2021/01/06 04:47:28;;;;;;;73.63;36.80;;;;;;;0.31;100.00;99010.00;1628184;87;21327;-71
2021/01/06 04:50:32;;;;;;;70.83;35.00;;;;;;;0.31;100.00;99015.08;1683332;85;21391;-74
2021/01/06 04:53:14;;;;;;;66.50;33.18;;;;;;;0.35;100.00;99014.42;1609502;88;21332;-69
2021/01/06 04:56:05;;;;;;;71.57;32.75;;;;;;;0.33;100.00;99003.31;1667596;85;21180;-70
2021/01/06 04:59:04;;;;;;;63.02;31.52;;;;;;;0.29;100.00;99001.03;1674781;85;21308;-70
2021/01/06 05:02:14;;;;;;;63.38;30.75;;;;;;;0.30;100.00;99004.43;1683252;85;21328;-71
2021/01/06 05:05:01;;;;;;;57.13;28.23;;;;;;;0.27;100.00;99006.81;1683187;85;21166;-66
2021/01/06 05:08:18;;;;;;;54.08;26.95;;;;;;;0.23;100.00;99014.68;1683402;85;21158;-65
2021/01/06 05:10:53;;;;;;;56.40;26.87;;;;;;;0.16;100.00;99014.74;1683507;85;21560;-65
2021/01/06 05:13:35;;;;;;;51.73;24.87;;;;;;;0.17;100.00;99011.80;1683288;85;21198;-66
2021/01/06 05:16:34;;;;;;;47.38;25.05;;;;;;;0.23;100.00;99015.05;1683436;85;21143;-68
2021/01/06 05:19:05;;;;;;;51.33;25.85;;;;;;;0.17;100.00;99017.74;1683233;85;21336;-68
2021/01/06 05:21:34;;;;;;;47.50;23.55;;;;;;;0.11;100.00;99022.51;1683545;85;21186;-69
2021/01/06 05:24:22;;;;;;;48.80;25.45;;;;;;;0.11;100.00;99027.59;1683239;85;21316;-71
2021/01/06 05:27:16;;;;;;;62.03;29.72;;;;;;;0.11;100.00;99027.59;1683265;85;21166;-69
2021/01/06 05:29:49;;;;;;;56.98;27.05;;;;;;;0.12;100.00;99025.91;1683318;85;21557;-66
2021/01/06 05:32:40;;;;;;;51.92;27.48;;;;;;;0.12;100.00;99017.03;1680769;85;21336;-65
2021/01/06 05:35:12;;;;;;;55.00;27.32;;;;;;;0.14;100.00;99022.66;1739863;82;21186;-73
2021/01/06 05:37:42;;;;;;;58.13;28.02;;;;;;;0.19;100.00;99022.51;1739753;82;21276;-67
2021/01/06 05:40:14;;;;;;;55.73;26.30;;;;;;;0.19;100.00;99028.86;1739784;82;21548;-73
2021/01/06 05:42:52;;;;;;;59.33;28.02;;;;;;;0.18;100.00;99028.39;1739450;82;21185;-68
2021/01/06 05:45:25;;;;;;;55.25;27.30;;;;;;;0.18;100.00;99027.13;1739297;82;21296;-70
2021/01/06 05:48:01;;;;;;;65.15;30.70;;;;;;;0.12;100.00;99020.44;1739398;82;21150;-71
2021/01/06 05:50:37;;;;;;;63.80;30.17;;;;;;;0.12;100.00;99024.64;1720216;82;21161;-66
2021/01/06 05:53:22;;;;;;;63.85;30.45;;;;;;;0.12;100.00;99028.05;1739720;82;21122;-68
2021/01/06 05:55:51;;;;;;;54.25;28.23;;;;;;;0.15;100.00;99021.89;1738671;82;21272;-70
2021/01/06 05:58:35;;;;;;;64.30;30.82;;;;;;;0.18;100.00;99030.92;1739052;82;21288;-67
2021/01/06 06:01:17;;;;;;;64.15;29.27;;;;;;;0.20;100.00;99020.84;1739168;82;21154;-68
2021/01/06 06:04:03;;;;;;;;;;;;;;;0.14;100.00;99021.39;1740715;82;21166;-70
2021/01/06 06:06:45;;;;;;;64.30;29.77;;;;;;;0.12;100.00;99022.97;1722519;82;20170;-66
2021/01/06 06:09:55;;;;;;;68.15;32.98;;;;;;;0.14;100.00;99020.13;1738918;82;21141;-68
2021/01/06 06:12:43;;;;;;;66.05;31.68;;;;;;;0.18;100.00;99022.05;1676293;83;21190;-66
2021/01/06 06:15:49;;;;;;;66.85;32.42;;;;;;;0.20;100.00;99024.27;1681540;85;21139;-68
2021/01/06 06:18:26;;;;;;;70.75;32.00;;;;;;;0.18;100.00;99039.81;1681744;84;21158;-71
2021/01/06 06:21:01;;;;;;;74.45;35.15;;;;;;;0.14;100.00;99037.89;1681519;85;21182;-69
2021/01/06 06:24:06;;;;;;;69.30;34.60;;;;;;;0.12;100.00;99034.80;1681830;85;21202;-69
2021/01/06 06:26:53;;;;;;;77.78;35.65;;;;;;;0.10;100.00;99036.00;1699606;83;21188;-67
2021/01/06 06:29:26;;;;;;;72.45;36.05;;;;;;;0.09;100.00;99030.83;1701038;83;21664;-67
2021/01/06 06:31:58;;;;;;;73.37;33.88;;;;;;;0.12;100.00;99025.51;1688137;83;21168;-69
2021/01/06 06:34:33;;;;;;;73.60;33.85;;;;;;;0.20;100.00;99035.70;1698575;83;21192;-68
2021/01/06 06:37:15;;;;;;;80.70;36.30;;;;;;;0.26;100.00;99045.30;1693956;84;21618;-66
2021/01/06 06:39:49;;;;;;;;;;;;;;;0.24;100.00;99048.54;1699689;83;21165;-69
2021/01/06 06:42:31;;;;;;;77.58;32.65;;;;;;;0.24;100.00;99048.54;1690294;83;20516;-67
2021/01/06 06:45:22;;;;;;;78.30;33.00;;;;;;;0.24;100.00;99048.14;1691517;83;21193;-67
2021/01/06 06:48:10;;;;;;;70.57;32.67;;;;;;;0.28;100.00;99058.94;1694237;83;21186;-69
2021/01/06 06:51:10;;;;;;;73.97;34.80;;;;;;;0.29;100.00;99062.34;1741923;81;21529;-68
2021/01/06 06:54:07;;;;;;;76.00;32.48;;;;;;;0.26;100.00;99049.09;1741321;82;21323;-69
2021/01/06 06:56:43;;;;;;;74.30;34.95;;;;;;;0.27;100.00;99053.37;1741149;82;21496;-66
2021/01/06 06:59:16;;;;;;;84.40;37.20;;;;;;;0.26;100.00;99055.84;1741347;82;21335;-67
2021/01/06 07:01:46;;;;;;;83.05;37.20;;;;;;;0.28;100.00;99060.58;1741084;82;21146;-69
2021/01/06 07:04:38;;;;;;;75.08;36.28;;;;;;;0.27;100.00;99045.75;1741329;82;21209;-68
2021/01/06 07:07:06;;;;;;;73.60;33.95;;;;;;;0.28;100.00;99055.50;1742217;82;21153;-66
2021/01/06 07:09:38;;;;;;;92.27;40.58;;;;;;;0.28;100.00;99054.23;1741274;82;21147;-67
2021/01/06 07:12:10;;;;;;;93.20;40.40;;;;;;;0.23;100.00;99049.31;1741271;82;21187;-67
2021/01/06 07:14:54;;;;;;;93.97;39.45;;;;;;;0.23;100.00;99052.75;1737661;82;21552;-73
2021/01/06 07:17:37;;;;;;;73.80;33.83;;;;;;;0.28;100.00;99058.04;1739370;82;21169;-66
2021/01/06 07:20:11;;;;;;;79.97;36.65;;;;;;;0.25;100.00;99065.09;1741978;82;21133;-68
2021/01/06 07:22:47;;;;;;;74.62;34.35;;;;;;;0.23;100.00;99049.31;1738443;82;21268;-69
2021/01/06 07:25:24;;;;;;;90.03;38.40;;;;;;;0.21;100.00;99060.27;1741213;82;21185;-69
2021/01/06 07:27:57;;;;;;;90.57;38.33;;;;;;;0.26;100.00;99046.96;1740665;82;21323;-69
2021/01/06 07:30:36;;;;;;;86.00;37.53;;;;;;;0.28;100.00;99050.42;1740969;82;21537;-68
2021/01/06 07:33:43;;;;;;;88.52;38.90;;;;;;;0.27;100.00;99052.50;1739465;82;21141;-70
2021/01/06 07:36:15;;;;;;;85.28;35.83;;;;;;;0.31;100.00;99054.42;1697057;84;21269;-69
2021/01/06 07:38:44;;;;;;;89.97;38.50;;;;;;;0.34;100.00;99048.23;1694503;84;21183;-70
2021/01/06 07:41:14;;;;;;;94.70;38.40;;;;;;;0.36;100.00;99054.27;1662169;86;21299;-70
2021/01/06 07:44:05;;;;;;;91.35;39.78;;;;;;;0.37;100.00;99061.08;1643433;86;21165;-64
2021/01/06 07:46:55;;;;;;;82.80;37.93;;;;;;;0.37;100.00;99054.33;1648629;87;21307;-65
2021/01/06 07:49:46;;;;;;;88.87;39.05;;;;;;;0.45;100.00;99061.08;1632834;86;21338;-66
2021/01/06 07:52:36;;;;;;;103.42;42.45;;;;;;;0.44;100.00;99058.07;1644906;86;21170;-67
2021/01/06 07:55:25;;;;;;;89.03;38.10;;;;;;;0.43;100.00;99063.92;1645831;86;21141;-72
2021/01/06 07:57:58;;;;;;;91.50;39.98;;;;;;;0.47;100.00;99067.11;1646158;87;21318;-69
2021/01/06 08:00:43;;;;;;;90.97;41.45;;;;;;;0.49;100.00;99071.87;1644675;86;21172;-69
2021/01/06 08:03:50;;;;;;;88.00;37.42;;;;;;;0.49;100.00;99071.87;1645555;86;21340;-67
2021/01/06 08:08:55;;;;;;;83.25;37.03;;;;;;;0.55;100.00;99069.64;1820051;77;22144;-66
2021/01/06 08:11:23;;;;;;;92.78;40.23;;;;;;;0.53;100.00;99075.44;1794083;80;21165;-66
2021/01/06 08:13:56;;;;;;;89.30;39.30;;;;;;;0.61;100.00;99079.24;1793986;78;21226;-69
2021/01/06 08:16:42;;;;;;;84.67;36.68;;;;;;;0.57;100.00;99075.69;1791894;80;21157;-67
2021/01/06 08:19:21;;;;;;;88.42;38.28;;;;;;;0.55;100.00;99081.07;1792274;80;21165;-69
2021/01/06 08:22:03;;;;;;;96.82;42.55;;;;;;;0.59;100.00;99079.19;1792096;80;21241;-70
2021/01/06 08:25:03;;;;;;;90.90;39.13;;;;;;;0.59;100.00;99076.64;1791354;80;21153;-69
2021/01/06 08:27:37;;;;;;;92.57;42.55;;;;;;;0.60;100.00;99078.37;1793199;78;21703;-68
2021/01/06 08:30:19;;;;;;;103.85;45.23;;;;;;;0.60;100.00;99080.05;1791047;80;21149;-67
2021/01/06 08:33:11;;;;;;;89.45;39.10;;;;;;;0.59;100.00;99080.86;1791956;80;21126;-67
2021/01/06 08:35:43;;;;;;;99.37;42.70;;;;;;;0.70;100.00;99087.75;1790130;80;21311;-70
2021/01/06 08:38:32;;;;;;;84.58;38.28;;;;;;;0.75;100.00;99085.92;1793980;78;21600;-68
2021/01/06 08:41:20;;;;;;;80.00;35.17;;;;;;;0.76;100.00;99100.76;1790123;80;21197;-67
2021/01/06 08:43:49;;;;;;;91.20;39.30;;;;;;;0.70;100.00;99083.95;1786737;79;21172;-67
2021/01/06 08:46:27;;;;;;;63.45;29.37;;;;;;;0.68;100.00;99086.39;1773431;80;21110;-66
2021/01/06 08:49:21;;;;;;;80.87;33.53;;;;;;;0.70;100.00;99089.89;1774966;80;21374;-66
2021/01/06 08:51:49;;;;;;;89.75;38.65;;;;;;;0.68;100.00;99085.53;1685466;85;21725;-65
2021/01/06 08:54:32;;;;;;;78.65;37.48;;;;;;;0.74;100.00;99082.02;1710138;83;21153;-65
2021/01/06 08:57:10;;;;;;;82.22;36.68;;;;;;;0.83;100.00;99083.77;1677611;85;21303;-67
2021/01/06 08:59:39;;;;;;;82.95;36.13;;;;;;;0.91;100.00;99088.84;1695250;83;21117;-66
2021/01/06 09:02:30;;;;;;;81.60;36.48;;;;;;;0.89;100.00;99087.92;1687797;84;21149;-67
2021/01/06 09:04:57;;;;;;;83.17;38.00;;;;;;;0.91;100.00;99085.44;1696876;84;21165;-67
2021/01/06 09:07:30;;;;;;;76.07;36.17;;;;;;;0.96;100.00;99080.19;1701005;83;21149;-67
2021/01/06 09:10:34;;;;;;;84.65;37.67;;;;;;;1.00;100.00;99084.23;1697913;83;21623;-66
2021/01/06 09:13:13;;;;;;;69.70;37.40;;;;;;;1.06;100.00;99080.72;1698729;83;21587;-67
2021/01/06 09:15:49;;;;;;;70.62;32.80;;;;;;;1.07;100.00;99086.30;1698279;83;21157;-68
2021/01/06 09:18:40;;;;;;;76.02;35.08;;;;;;;1.12;100.00;99084.00;1697807;83;21157;-67
2021/01/06 09:21:29;;;;;;;68.40;32.20;;;;;;;1.16;100.00;99078.66;1708400;83;21291;-68
2021/01/06 09:24:13;;;;;;;57.35;28.67;;;;;;;1.22;100.00;99076.03;1678225;85;21611;-68
2021/01/06 09:26:45;;;;;;;58.20;28.50;;;;;;;1.25;100.00;99081.66;1707787;84;21698;-67
2021/01/06 09:29:36;;;;;;;58.23;28.70;;;;;;;1.17;100.00;99077.84;1711227;83;21505;-67
2021/01/06 09:32:18;;;;;;;49.38;25.88;;;;;;;1.08;100.00;99075.73;1662064;84;21194;-67
2021/01/06 09:34:59;;;;;;;68.92;31.45;;;;;;;1.05;100.00;99076.45;1645276;85;21737;-67
2021/01/06 09:37:31;;;;;;;63.52;32.85;;;;;;;1.08;100.00;99075.73;1663653;86;21315;-68
2021/01/06 09:40:17;;;;;;;60.90;28.17;;;;;;;1.13;100.00;99085.73;1661945;86;21327;-66
2021/01/06 09:42:53;;;;;;;64.67;31.10;;;;;;;1.13;100.00;99083.59;1660325;86;21165;-69
2021/01/06 09:45:25;;;;;;;69.80;34.05;;;;;;;1.14;100.00;99080.23;1663505;86;21145;-67
2021/01/06 09:47:57;;;;;;;59.58;29.37;;;;;;;1.18;100.00;99073.25;1661526;86;21164;-66
2021/01/06 09:50:33;;;;;;;60.08;29.92;;;;;;;1.19;100.00;99070.77;1663467;86;21588;-67
2021/01/06 09:53:04;;;;;;;62.55;32.10;;;;;;;1.20;100.00;99075.48;1661828;86;21584;-65
2021/01/06 09:55:34;;;;;;;64.70;29.25;;;;;;;1.16;100.00;99074.44;1662249;86;21695;-69
2021/01/06 09:58:25;;;;;;;54.03;28.92;;;;;;;1.15;100.00;99077.78;1663266;86;21185;-68
2021/01/06 10:01:34;;;;;;;61.68;30.65;;;;;;;1.16;100.00;99071.89;1664537;86;21185;-65
2021/01/06 10:04:13;;;;;;;62.53;30.77;;;;;;;1.13;100.00;99066.66;1661812;86;21161;-69
2021/01/06 10:07:03;;;;;;;56.98;29.25;;;;;;;1.12;100.00;99073.83;1667559;86;21193;-70
2021/01/06 10:09:43;;;;;;;64.40;29.20;;;;;;;1.10;100.00;99072.01;1667472;86;21181;-66
2021/01/06 10:12:39;;;;;;;57.38;30.10;;;;;;;1.08;100.00;99071.52;1667377;86;21324;-67
2021/01/06 10:15:33;;;;;;;66.50;34.23;;;;;;;1.11;100.00;99072.47;1667327;86;21205;-68
2021/01/06 10:18:34;;;;;;;64.05;32.42;;;;;;;1.18;100.00;99069.44;1594968;86;21154;-69
2021/01/06 10:21:38;;;;;;;66.95;33.35;;;;;;;1.24;100.00;99074.41;1667497;86;21706;-69
2021/01/06 10:24:21;;;;;;;68.20;35.05;;;;;;;1.29;100.00;99075.91;1667569;85;21706;-68
2021/01/06 10:27:15;;;;;;;;;;;;;;;1.29;100.00;99070.42;1670119;86;21201;-69
2021/01/06 10:29:51;;;;;;;57.93;30.52;;;;;;;1.39;100.00;99072.16;1666528;86;20144;-68
2021/01/06 10:32:49;;;;;;;65.47;33.25;;;;;;;1.44;100.00;99074.13;1684382;85;21188;-70
2021/01/06 10:35:40;;;;;;;66.57;32.67;;;;;;;1.42;100.00;99075.71;1684757;85;21193;-69
2021/01/06 10:38:30;;;;;;;71.10;34.40;;;;;;;1.43;100.00;99076.20;1685104;85;21607;-69
2021/01/06 10:41:24;;;;;;;70.52;34.65;;;;;;;1.43;100.00;99079.16;1684707;85;21184;-70
2021/01/06 10:43:59;;;;;;;76.50;36.80;;;;;;;1.44;100.00;99075.39;1684616;85;21180;-69
2021/01/06 10:46:51;;;;;;;69.85;35.08;;;;;;;1.49;100.00;99084.12;1684678;85;21191;-70
2021/01/06 10:49:24;;;;;;;69.87;37.33;;;;;;;1.56;100.00;99084.03;1684928;85;21240;-70
2021/01/06 10:52:11;;;;;;;73.75;33.60;;;;;;;1.65;100.00;99078.50;1684888;85;21235;-69
2021/01/06 10:54:56;;;;;;;63.55;33.15;;;;;;;1.67;100.00;99071.81;1684704;85;21226;-69
2021/01/06 10:57:35;;;;;;;67.32;34.50;;;;;;;1.66;100.00;99077.72;1683321;85;21181;-70
2021/01/06 11:00:25;;;;;;;70.92;36.63;;;;;;;1.64;100.00;99075.49;1675524;84;21181;-72
2021/01/06 11:03:14;;;;;;;76.57;36.88;;;;;;;1.64;100.00;99078.91;1679321;85;21185;-74
2021/01/06 11:05:55;;;;;;;74.55;36.00;;;;;;;1.71;100.00;99089.85;1657450;86;21699;-70
2021/01/06 11:08:54;;;;;;;78.55;38.67;;;;;;;1.76;100.00;99086.67;1657269;86;21320;-63
2021/01/06 11:12:02;;;;;;;71.28;36.08;;;;;;;1.71;100.00;99092.39;1674026;85;21136;-64
2021/01/06 11:14:59;;;;;;;65.17;34.73;;;;;;;1.74;100.00;99089.13;1681211;85;21626;-64
2021/01/06 11:17:42;;;;;;;46.73;25.32;;;;;;;1.91;100.00;99089.53;1678044;85;21423;-65
2021/01/06 11:20:36;;;;;;;50.52;27.40;;;;;;;2.00;99.65;99086.94;1674501;85;21177;-64
2021/01/06 11:23:28;;;;;;;40.05;22.10;;;;;;;2.07;100.00;99088.56;1680420;85;21185;-65
2021/01/06 11:26:09;;;;;;;43.25;22.35;;;;;;;2.14;99.12;99080.82;1676188;85;21218;-66
2021/01/06 11:29:33;;;;;;;45.25;24.67;;;;;;;2.08;98.82;99089.02;1667356;85;21299;-63
2021/01/06 11:32:06;;;;;;;46.45;24.63;;;;;;;2.01;98.47;99074.67;1673810;85;21145;-64
2021/01/06 11:34:38;;;;;;;41.30;22.07;;;;;;;1.87;98.48;99071.49;1675786;85;21304;-66
2021/01/06 11:37:37;;;;;;;49.65;24.50;;;;;;;1.78;98.76;99065.95;1686260;85;21159;-64
2021/01/06 11:40:09;;;;;;;44.98;23.30;;;;;;;1.75;98.83;99061.59;1682872;85;21199;-63
2021/01/06 11:43:25;;;;;;;41.75;21.97;;;;;;;1.73;98.85;99067.01;1680334;85;21152;-64
2021/01/06 11:45:53;;;;;;;42.50;23.07;;;;;;;1.69;98.95;99067.69;1630844;87;21632;-63
2021/01/06 11:48:38;;;;;;;43.05;25.82;;;;;;;1.70;99.21;99064.33;1617916;87;21593;-64
2021/01/06 11:51:22;;;;;;;47.48;26.20;;;;;;;1.78;99.42;99061.77;1640859;86;21330;-63
2021/01/06 11:54:11;;;;;;;43.20;26.02;;;;;;;1.84;99.20;99066.27;1645153;86;21170;-65
2021/01/06 11:56:46;;;;;;;47.73;27.25;;;;;;;1.87;98.75;99069.81;1643168;86;21171;-65
2021/01/06 11:59:29;;;;;;;50.48;25.85;;;;;;;1.82;98.70;99070.00;1638838;86;21342;-64
2021/01/06 12:02:19;;;;;;;50.90;27.37;;;;;;;1.81;98.72;99071.22;1646436;87;21716;-64
2021/01/06 12:05:27;;;;;;;48.38;26.42;;;;;;;1.78;98.71;99077.03;1641114;86;21186;-65
2021/01/06 12:08:20;;;;;;;50.12;25.72;;;;;;;1.78;98.86;99080.85;1645524;87;21206;-65
2021/01/06 12:11:06;;;;;;;50.73;26.95;;;;;;;1.83;98.83;99080.67;1644962;86;21412;-64
2021/01/06 12:14:09;;;;;;;42.10;24.00;;;;;;;1.86;98.70;99082.08;1646460;86;21135;-64
2021/01/06 12:17:11;;;;;;;49.42;26.25;;;;;;;1.82;98.50;99074.22;1641878;87;21131;-63
2021/01/06 12:20:06;;;;;;;43.38;24.72;;;;;;;1.77;98.81;99065.50;1648974;87;21325;-64
2021/01/06 12:22:36;;;;;;;65.83;33.25;;;;;;;1.82;99.07;99062.37;1645173;86;21166;-68